Wednesday, September 19, 2018, 6:40 PM GMT
Back to Local

CYPD, Port Hawkesbury

Location: , , Canada Lat: 45.667
Local Time: 6:40 PM GMT (18:40 GMT) Lon: -61.383
Time Zone: GMT Elev: 374 ft

Show me the last for .
Show Decoded

2018-09-19 18:17 METAR CYPD 191817Z AUTO 06012G17KT 7SM BKN012 OVC019 11/10 A3001 RMK SLP166 =
2018-09-19 18:00 METAR CYPD 191800Z AUTO 05008G18KT 020V080 6SM -RA BR BKN013 OVC021 11/10 A3001
                 RMK SLP167 =
2018-09-19 17:16 METAR CYPD 191716Z AUTO 05011G19KT 9SM -RA SCT009 BKN015 BKN021 OVC033 11/10
                 A3000 RMK SLP163 =
2018-09-19 17:05 METAR CYPD 191705Z AUTO 06012G17KT 6SM -RA BR BKN009 BKN015 OVC030 11/10 A3000
                 RMK SLP162 =
2018-09-19 17:00 METAR CYPD 191700Z AUTO 05011G18KT 5SM -RA BR BKN009 BKN015 OVC029 11/10 A3000
                 RMK SLP162 =
2018-09-19 16:56 METAR CYPD 191656Z AUTO 06011G18KT 5SM -RA BR BKN007 BKN015 BKN035 OVC050 11/10
                 A2999 RMK SLP160 =
2018-09-19 16:51 METAR CYPD 191651Z AUTO 05010G19KT 5SM -RA BR SCT007 BKN011 BKN021 OVC034 11/10
                 A2999 RMK SLP160 =
2018-09-19 16:50 METAR CYPD 191650Z AUTO 05010G19KT 5SM -RA BR BKN007 BKN014 OVC034 11/10 A2999
                 RMK SLP160 =
2018-09-19 16:47 METAR CYPD 191647Z AUTO 06013G19KT 4SM -RA BR SCT007 BKN012 OVC025 11/10 A2999
                 RMK SLP159 =
2018-09-19 16:46 METAR CYPD 191646Z AUTO 06012G19KT 4SM -RA BR BKN007 BKN014 OVC025 11/11 A2999
                 RMK SLP159 =
2018-09-19 16:45 METAR CYPD 191645Z AUTO 06010G17KT 4SM -RA BR SCT007 BKN012 OVC020 11/11 A2999
                 RMK SLP159 =
2018-09-19 16:40 METAR CYPD 191640Z AUTO 06010G18KT 3SM -RA BR BKN009 OVC016 11/11 A2999 RMK
                 SLP159 =
2018-09-19 16:39 METAR CYPD 191639Z AUTO 06011G18KT 3SM -RA BR SCT007 OVC012 11/11 A2999 RMK
                 SLP159 =
2018-09-19 16:38 METAR CYPD 191638Z AUTO 05011G18KT 3SM -RA BR BKN007 OVC014 11/11 A2999 RMK
                 SLP159 =
2018-09-19 16:35 METAR CYPD 191635Z AUTO 05012G18KT 3SM -RA BR SCT007 BKN011 OVC016 11/10 A2999
                 RMK SLP159 =
2018-09-19 16:32 METAR CYPD 191632Z AUTO 06013G18KT 4SM -RA BR BKN009 OVC016 11/10 A2999 RMK
                 SLP159 =
2018-09-19 16:31 METAR CYPD 191631Z AUTO 06011G18KT 4SM -RA BR SCT009 OVC014 11/10 A2999 RMK
                 SLP159 =
2018-09-19 16:23 METAR CYPD 191623Z AUTO 05009G20KT 3SM -RA BR BKN009 BKN014 OVC022 11/10 A2999
                 RMK SLP159 =
2018-09-19 16:00 METAR CYPD 191600Z AUTO 05010G17KT 3SM -RA BR SCT009 OVC016 11/10 A2998 RMK
                 SLP157 =
2018-09-19 15:52 METAR CYPD 191552Z AUTO 05010G19KT 3SM -RA BR FEW009 OVC016 11/10 A2999 RMK
                 SLP158 =
2018-09-19 15:30 METAR CYPD 191530Z AUTO 06010G16KT 2 1/4SM -RA BR SCT010 BKN015 11/10 A2998 RMK
                 SLP157 =
2018-09-19 15:22 METAR CYPD 191522Z AUTO 05009G16KT 3SM -RA BR BKN010 BKN015 OVC024 11/10 A2998
                 RMK SLP157 =
2018-09-19 15:21 METAR CYPD 191521Z AUTO 05009G16KT 3SM -RA BR BKN008 BKN012 OVC020 11/10 A2998
                 RMK SLP157 =
2018-09-19 15:11 METAR CYPD 191511Z AUTO 05010G18KT 5SM -RA BR BKN010 BKN020 OVC027 11/10 A2998
                 RMK SLP156 =
2018-09-19 15:08 METAR CYPD 191508Z AUTO 05010G18KT 6SM -RA BR BKN010 BKN020 OVC027 11/10 A2998
                 RMK SLP155 =
2018-09-19 15:00 METAR CYPD 191500Z AUTO 05008G18KT 3SM -RA BR BKN010 BKN013 OVC020 11/10 A2998
                 RMK SLP154 =
2018-09-19 14:29 METAR CYPD 191429Z AUTO 05011G19KT 5SM -RA BR BKN010 BKN014 OVC019 11/10 A2995
                 RMK SLP147 =
2018-09-19 14:27 METAR CYPD 191427Z AUTO 05011G19KT 5SM BR SCT010 BKN016 OVC023 11/10 A2995 RMK
                 SLP146 =
2018-09-19 14:23 METAR CYPD 191423Z AUTO 06011G22KT 8SM -RA BKN013 OVC020 12/10 A2995 RMK SLP145
                 =
2018-09-19 14:15 METAR CYPD 191415Z AUTO 06012G22KT 5SM -RA BR OVC016 11/10 A2995 RMK SLP145 =
2018-09-19 14:13 METAR CYPD 191413Z AUTO 07015G24KT 5SM BR OVC016 12/10 A2995 RMK SLP145 =
2018-09-19 14:00 METAR CYPD 191400Z AUTO 07015G22KT 030V090 9SM BKN013 OVC019 12/10 A2995 RMK
                 SLP146 =
2018-09-19 13:00 METAR CYPD 191300Z AUTO 06014G23KT 9SM OVC015 12/10 A2992 RMK SLP137 =
2018-09-19 12:11 METAR CYPD 191211Z AUTO 07016G25KT 9SM BKN013 OVC018 11/10 A2990 RMK SLP129 =
2018-09-19 12:00 METAR CYPD 191200Z AUTO 07014G25KT 9SM -RA BKN011 BKN017 OVC023 11/10 A2990 RMK
                 SLP129 =
2018-09-19 11:37 METAR CYPD 191137Z AUTO 07015G24KT 9SM -RA BKN011 OVC016 11/10 A2989 RMK PRESFR
                 SLP124 =
2018-09-19 11:14 METAR CYPD 191114Z AUTO 05010G16KT 9SM BKN011 OVC017 11/10 A2990 RMK SLP130 =
2018-09-19 11:00 METAR CYPD 191100Z AUTO 06011G19KT 9SM -RA OVC011 11/10 A2990 RMK SLP127 =
2018-09-19 10:53 METAR CYPD 191053Z AUTO 06013G20KT 9SM -RA BKN011 OVC018 11/10 A2989 RMK SLP125
                 =
2018-09-19 10:22 METAR CYPD 191022Z AUTO 06012G22KT 6SM -RA BR OVC011 11/10 A2989 RMK SLP124 =
2018-09-19 10:13 METAR CYPD 191013Z AUTO 06013G23KT 5SM -RA BR BKN011 OVC014 11/10 A2989 RMK
                 SLP123 =
2018-09-19 10:11 METAR CYPD 191011Z AUTO 07012G23KT 5SM BR OVC011 11/10 A2988 RMK SLP122 =
2018-09-19 10:10 METAR CYPD 191010Z AUTO 07014G23KT 6SM BR BKN011 OVC014 11/10 A2988 RMK SLP122 =
2018-09-19 10:05 METAR CYPD 191005Z AUTO 06014G24KT 7SM -RA OVC011 11/10 A2988 RMK SLP121 =
2018-09-19 10:00 METAR CYPD 191000Z AUTO 06014G24KT 8SM -RA OVC009 11/10 A2988 RMK SLP121 =
2018-09-19 09:52 METAR CYPD 190952Z AUTO 07012G18KT 6SM -RA BR OVC009 11/10 A2988 RMK PRESRR
                 SLP120 =
2018-09-19 09:31 METAR CYPD 190931Z AUTO 06013G20KT 3SM -RA BR OVC009 11/10 A2986 RMK SLP114 =
2018-09-19 09:14 METAR CYPD 190914Z AUTO 06013G21KT 2 1/2SM -RA BR OVC009 11/10 A2986 RMK SLP114
                 =
2018-09-19 09:00 METAR CYPD 190900Z AUTO 06011G21KT 4SM -RA BR OVC011 11/10 A2986 RMK SLP113 =
2018-09-19 08:49 METAR CYPD 190849Z AUTO 06012G20KT 4SM -RA BR OVC011 11/10 A2985 RMK SLP112 =
2018-09-19 08:40 METAR CYPD 190840Z AUTO 06013G20KT 5SM BR OVC011 11/10 A2984 RMK SLP109 =
2018-09-19 08:00 METAR CYPD 190800Z AUTO 06014G23KT 9SM OVC011 11/10 A2984 RMK SLP108 =
2018-09-19 07:00 METAR CYPD 190700Z AUTO 07016G27KT 9SM OVC011 11/10 A2983 RMK SLP105 =
2018-09-19 06:00 METAR CYPD 190600Z AUTO 07015G23KT 9SM OVC011 11/10 A2982 RMK SLP102 =
2018-09-19 05:00 METAR CYPD 190500Z AUTO 07015G22KT 9SM OVC013 11/10 A2984 RMK SLP106 =
2018-09-19 04:48 METAR CYPD 190448Z AUTO 07013G25KT 9SM SCT008 OVC013 11/11 A2983 RMK SLP104 =
2018-09-19 04:43 METAR CYPD 190443Z AUTO 07016G22KT 7SM -RA OVC010 11/11 A2983 RMK SLP103 =
2018-09-19 04:14 METAR CYPD 190414Z AUTO 06013G20KT 3SM -RA BR OVC010 12/11 A2984 RMK SLP106 =
2018-09-19 04:01 METAR CYPD 190401Z AUTO 06012G20KT 2 1/4SM -RA BR OVC010 12/11 A2984 RMK VIS VRB
                 1 1/2-3 SLP107 =
2018-09-19 04:00 METAR CYPD 190400Z AUTO 06013G20KT 3SM -RA BR OVC010 12/11 A2984 RMK SLP107 =
2018-09-19 03:48 METAR CYPD 190348Z AUTO 06013G21KT 4SM -RA BR OVC010 12/11 A2983 RMK SLP104 =
2018-09-19 03:44 METAR CYPD 190344Z AUTO 07014G21KT 5SM BR OVC010 12/11 A2983 RMK SLP103 =
2018-09-19 03:20 METAR CYPD 190320Z AUTO 06015G24KT 8SM OVC010 12/11 A2983 RMK SLP103 =
2018-09-19 03:00 METAR CYPD 190300Z AUTO 07016G21KT 9SM OVC008 12/11 A2984 RMK SLP105 =
2018-09-19 02:35 METAR CYPD 190235Z AUTO 06015G20KT 9SM BKN008 OVC030 12/11 A2983 RMK SLP102 =
2018-09-19 02:23 METAR CYPD 190223Z AUTO 06011G19KT 6SM -RA BR OVC008 12/11 A2984 RMK SLP105 =
2018-09-19 02:00 METAR CYPD 190200Z AUTO 05011G16KT 3SM -RA BR OVC008 12/11 A2984 RMK SLP107 =
2018-09-19 01:48 METAR CYPD 190148Z AUTO 05011KT 3SM -RA BR OVC008 12/12 A2984 RMK SLP106 =
2018-09-19 01:07 METAR CYPD 190107Z AUTO 05012G20KT 2 1/2SM -RA BR OVC008 12/12 A2983 RMK SLP104
                 =
2018-09-19 01:00 METAR CYPD 190100Z AUTO 05011G19KT 3SM -RA BR OVC008 13/12 A2983 RMK SLP104 =
2018-09-19 00:24 METAR CYPD 190024Z AUTO 06013G19KT 3SM -RA BR OVC008 13/12 A2982 RMK SLP099 =
2018-09-19 00:10 METAR CYPD 190010Z AUTO 06013G18KT 5SM BR OVC008 13/12 A2982 RMK SLP099 =
2018-09-19 00:00 METAR CYPD 190000Z AUTO 06009G19KT 8SM OVC008 14/13 A2981 RMK SLP098 DENSITY ALT
                 400FT =
2018-09-18 23:11 METAR CYPD 182311Z AUTO 06011G17KT 6SM BR OVC008 14/13 A2980 RMK SLP094 DENSITY
                 ALT 400FT =
2018-09-18 23:00 METAR CYPD 182300Z AUTO 05011G17KT 5SM BR OVC008 14/13 A2980 RMK SLP092 DENSITY
                 ALT 500FT =
2018-09-18 22:45 METAR CYPD 182245Z AUTO 05009G16KT 5SM BR OVC008 15/14 A2980 RMK PRESRR SLP093
                 DENSITY ALT 500FT =
2018-09-18 22:31 METAR CYPD 182231Z AUTO 06008KT 6SM BR OVC008 15/14 A2978 RMK PRESRR SLP087
                 DENSITY ALT 600FT =
2018-09-18 22:26 METAR CYPD 182226Z AUTO 06008KT 5SM BR OVC008 16/14 A2978 RMK PRESRR SLP086
                 DENSITY ALT 600FT =
2018-09-18 22:00 METAR CYPD 182200Z AUTO 08008KT 030V130 9SM BKN010 OVC014 17/15 A2977 RMK SLP084
                 DENSITY ALT 800FT =
2018-09-18 21:00 METAR CYPD 182100Z AUTO 29004KT 9SM SCT012 BKN020 BKN060 OVC120 19/18 A2975 RMK
                 SLP077 DENSITY ALT 1100FT =
2018-09-18 20:55 METAR CYPD 182055Z AUTO 30005KT 9SM SCT012 BKN020 BKN060 OVC140 20/18 A2975 RMK
                 SLP077 DENSITY ALT 1100FT =
2018-09-18 20:00 METAR CYPD 182000Z AUTO 31005KT 280V020 9SM FEW010 BKN120 20/17 A2975 RMK SLP076
                 DENSITY ALT 1200FT =
2018-09-18 19:00 METAR CYPD 181900Z AUTO 30009KT 9SM FEW010 BKN120 21/18 A2974 RMK SLP071 DENSITY
                 ALT 1300FT =

Support USWX by starting your Amazon purchase here.